Time;durP1;ratioP1;P1;durP2;ratioP2;P2;SDS_P1;SDS_P2;PMS_P1;PMS_P2;Temp;Humidity;BMP_temperature;BMP_pressure;BME280_temperature;BME280_humidity;BME280_pressure;Samples;Min_cycle;Max_cycle;Signal;HPM_P1;HPM_P2
2022/11/16 00:01:43;;;;;;;;;18.00;13.50;;;;;11.51;87.11;99764.91;5007721;28;10024;-64
2022/11/16 00:04:10;;;;;;;;;19.25;12.75;;;;;11.51;87.48;99777.56;5008627;28;10094;-64
2022/11/16 00:06:37;;;;;;;;;16.25;15.00;;;;;11.56;87.51;99780.41;5010015;28;10275;-64
2022/11/16 00:09:21;;;;;;;;;10.75;10.75;;;;;11.57;87.60;99772.09;5009962;28;10179;-65
2022/11/16 00:11:50;;;;;;;;;12.00;11.00;;;;;11.60;87.52;99773.50;5010196;28;10084;-65
2022/11/16 00:14:18;;;;;;;;;15.25;15.25;;;;;11.57;87.35;99774.78;5008945;28;10091;-63
2022/11/16 00:16:44;;;;;;;;;14.00;13.00;;;;;11.57;87.48;99766.69;5007422;28;10225;-65
2022/11/16 00:19:11;;;;;;;;;14.75;14.75;;;;;11.56;87.42;99775.00;5009745;28;10025;-65
2022/11/16 00:21:37;;;;;;;;;11.50;9.75;;;;;11.57;87.30;99771.25;5012021;28;9925;-64
2022/11/16 00:24:04;;;;;;;;;12.00;9.50;;;;;11.58;87.50;99770.19;5013381;28;10093;-64
2022/11/16 00:26:31;;;;;;;;;14.00;13.00;;;;;11.61;87.12;99767.06;5012898;28;10145;-63
2022/11/16 00:28:57;;;;;;;;;12.50;10.75;;;;;11.59;86.97;99769.19;5012968;28;10881;-65
2022/11/16 00:31:24;;;;;;;;;18.75;16.50;;;;;11.55;87.28;99762.59;5012833;28;10022;-64
2022/11/16 00:33:50;;;;;;;;;19.25;17.25;;;;;11.56;87.69;99765.06;5008880;28;9984;-64
2022/11/16 00:36:17;;;;;;;;;18.50;16.75;;;;;11.58;87.41;99759.44;5005251;28;10966;-64
2022/11/16 00:38:43;;;;;;;;;13.75;12.25;;;;;11.58;87.63;99762.13;5013739;28;10286;-63
2022/11/16 00:41:12;;;;;;;;;12.75;12.00;;;;;11.57;87.46;99769.38;5013495;28;10128;-63
2022/11/16 00:43:38;;;;;;;;;19.00;15.25;;;;;11.58;87.47;99767.50;5010664;28;10112;-64
2022/11/16 00:46:05;;;;;;;;;11.00;10.00;;;;;11.61;87.45;99762.50;5012835;28;9990;-64
2022/11/16 00:48:31;;;;;;;;;14.25;13.75;;;;;11.59;87.70;99759.22;5012233;28;10050;-64
2022/11/16 00:50:58;;;;;;;;;14.50;14.50;;;;;11.59;87.63;99759.22;4992615;28;10044;-63
2022/11/16 00:53:25;;;;;;;;;15.50;13.50;;;;;11.59;87.19;99753.81;4976770;28;10113;-63
2022/11/16 00:55:51;;;;;;;;;12.50;12.25;;;;;11.59;87.04;99759.22;4989485;28;10159;-64
2022/11/16 00:58:19;;;;;;;;;16.00;13.50;;;;;11.55;87.42;99758.03;4995335;28;9994;-63
2022/11/16 01:00:51;;;;;;;;;14.50;14.50;;;;;11.56;87.71;99751.56;4995638;28;10098;-63
2022/11/16 01:03:19;;;;;;;;;15.25;12.00;;;;;11.60;87.66;99746.56;5011934;28;10217;-63
2022/11/16 01:05:46;;;;;;;;;17.25;14.50;;;;;11.56;87.31;99746.19;5012804;28;9928;-63
2022/11/16 01:08:13;;;;;;;;;18.50;17.00;;;;;11.54;87.53;99740.19;4994914;28;10703;-64
2022/11/16 01:10:40;;;;;;;;;14.00;13.50;;;;;11.59;87.54;99745.75;5018327;28;9934;-63
2022/11/16 01:13:10;;;;;;;;;14.00;13.00;;;;;11.62;87.77;99739.06;5010664;28;10174;-65
2022/11/16 01:15:36;;;;;;;;;19.00;13.00;;;;;11.61;87.48;99743.63;4995272;28;9970;-64
2022/11/16 01:18:03;;;;;;;;;14.50;13.25;;;;;11.63;87.61;99748.81;5008044;28;10875;-64
2022/11/16 01:20:29;;;;;;;;;13.50;13.00;;;;;11.67;87.79;99746.44;5012704;28;10171;-64
2022/11/16 01:22:56;;;;;;;;;16.50;15.50;;;;;11.66;87.76;99736.72;5011116;28;10118;-64
2022/11/16 01:25:23;;;;;;;;;15.00;13.00;;;;;11.66;87.44;99734.84;5016041;28;10146;-64
2022/11/16 01:27:49;;;;;;;;;13.00;11.00;;;;;11.69;87.68;99730.88;5028144;28;10069;-67
2022/11/16 01:30:23;;;;;;;;;14.50;14.50;;;;;11.67;87.30;99732.97;4994845;28;10520;-65
2022/11/16 01:32:58;;;;;;;;;15.00;14.25;;;;;11.66;87.67;99732.16;5001199;28;9964;-64
2022/11/16 01:35:25;;;;;;;;;20.50;18.25;;;;;11.60;87.52;99733.91;5009003;28;10686;-66
2022/11/16 01:37:53;;;;;;;;;19.25;17.25;;;;;11.64;87.81;99729.69;5013014;28;10129;-65
2022/11/16 01:40:19;;;;;;;;;16.75;15.00;;;;;11.66;87.40;99732.16;4994476;28;10205;-64
2022/11/16 01:42:46;;;;;;;;;8.50;8.00;;;;;11.68;87.49;99731.94;5009494;28;9874;-64
2022/11/16 01:45:37;;;;;;;;;16.00;15.50;;;;;11.71;87.65;99742.25;5023448;28;10509;-65
2022/11/16 01:48:08;;;;;;;;;21.50;16.25;;;;;11.71;87.57;99744.94;5011802;28;10009;-65
2022/11/16 01:50:35;;;;;;;;;19.00;16.00;;;;;11.70;87.67;99740.59;5009601;28;10341;-65
2022/11/16 01:53:04;;;;;;;;;20.50;16.75;;;;;11.67;87.66;99735.66;5011038;28;10043;-65
2022/11/16 01:55:42;;;;;;;;;16.50;13.00;;;;;11.72;87.60;99738.53;4994308;28;10027;-65
2022/11/16 01:58:19;;;;;;;;;15.75;15.75;;;;;11.71;87.25;99735.00;4994980;28;10021;-65
2022/11/16 02:00:51;;;;;;;;;19.75;17.50;;;;;11.72;87.34;99736.66;5017850;28;10211;-65
2022/11/16 02:03:28;;;;;;;;;19.00;19.00;;;;;11.68;87.28;99721.97;5000008;28;10063;-65
2022/11/16 02:06:10;;;;;;;;;21.25;19.25;;;;;11.70;87.42;99727.94;5008164;28;10052;-64
2022/11/16 02:12:04;;;;;;;;;14.00;14.00;;;;;11.77;87.57;99723.28;5004845;28;9934;-65
2022/11/16 02:15:04;;;;;;;;;12.50;12.50;;;;;11.80;87.21;99717.44;5010555;28;10629;-64
2022/11/16 02:18:06;;;;;;;;;24.75;18.50;;;;;11.80;87.53;99716.63;4983824;28;10050;-65
2022/11/16 02:20:44;;;;;;;;;18.00;17.25;;;;;11.79;87.66;99712.31;4975970;28;10092;-65
2022/11/16 02:23:26;;;;;;;;;22.25;16.75;;;;;11.81;87.37;99719.09;5010310;28;10020;-65
2022/11/16 02:26:03;;;;;;;;;18.75;17.50;;;;;11.76;87.36;99724.34;4990752;28;10179;-65
2022/11/16 02:28:45;;;;;;;;;19.00;18.25;;;;;11.78;87.51;99714.16;5013920;28;9943;-65
2022/11/16 02:31:19;;;;;;;;;23.00;22.50;;;;;11.78;87.50;99719.53;5009732;28;10029;-65
2022/11/16 02:33:49;;;;;;;;;16.00;16.00;;;;;11.80;87.58;99727.41;5019168;28;10202;-65
2022/11/16 02:36:21;;;;;;;;;12.75;12.00;;;;;11.85;87.51;99725.69;4993873;28;10043;-64
2022/11/16 02:38:56;;;;;;;;;16.50;15.75;;;;;11.88;87.33;99722.53;4993245;28;10514;-65
2022/11/16 02:41:27;;;;;;;;;19.75;16.50;;;;;11.89;87.07;99726.06;5022139;28;9952;-66
2022/11/16 02:44:01;;;;;;;;;16.75;14.75;;;;;11.88;87.13;99729.81;5001758;28;9937;-65
2022/11/16 02:46:34;;;;;;;;;19.25;17.25;;;;;11.78;87.05;99730.31;5008227;28;9893;-65
2022/11/16 02:49:07;;;;;;;;;16.25;13.75;;;;;11.82;87.22;99731.50;4993643;28;10117;-65
2022/11/16 02:51:35;;;;;;;;;23.00;19.50;;;;;11.81;87.19;99732.56;5006116;28;10096;-64
2022/11/16 02:54:16;;;;;;;;;15.25;15.25;;;;;11.81;87.00;99729.88;5009285;28;11004;-65
2022/11/16 02:57:01;;;;;;;;;14.50;13.00;;;;;11.84;87.26;99736.72;4993262;28;10038;-65
2022/11/16 02:59:55;;;;;;;;;20.25;19.50;;;;;11.83;87.34;99735.91;4991888;28;9861;-65
2022/11/16 03:02:27;;;;;;;;;18.00;15.00;;;;;11.86;87.22;99727.34;5003384;28;10136;-65
2022/11/16 03:05:01;;;;;;;;;16.50;15.50;;;;;11.89;87.03;99720.66;5007102;28;10772;-64
2022/11/16 03:07:41;;;;;;;;;21.00;21.00;;;;;11.86;86.77;99730.03;5000850;28;10065;-65
2022/11/16 03:10:08;;;;;;;;;16.25;16.25;;;;;11.84;86.96;99723.25;4991819;28;10096;-65
2022/11/16 03:12:39;;;;;;;;;16.25;15.00;;;;;11.87;86.87;99717.41;5010897;28;9930;-65
2022/11/16 03:15:10;;;;;;;;;17.25;14.75;;;;;11.86;86.90;99721.13;5006268;28;9936;-65
2022/11/16 03:17:44;;;;;;;;;19.00;18.00;;;;;11.88;86.74;99714.47;4993451;28;10842;-65
2022/11/16 03:20:26;;;;;;;;;25.50;23.25;;;;;11.86;86.64;99721.94;5009977;28;10074;-65
2022/11/16 03:22:59;;;;;;;;;21.75;19.00;;;;;11.84;86.74;99717.84;4992944;28;10100;-64
2022/11/16 03:25:35;;;;;;;;;14.25;13.75;;;;;11.85;86.81;99719.47;5010345;28;9947;-65
2022/11/16 03:28:17;;;;;;;;;18.75;16.25;;;;;11.85;86.84;99722.19;5010398;28;10049;-65
2022/11/16 03:30:50;;;;;;;;;16.00;15.50;;;;;11.87;86.66;99717.41;5006256;28;10044;-65
2022/11/16 03:33:21;;;;;;;;;17.25;16.00;;;;;11.86;86.48;99715.72;5009613;28;9864;-64
2022/11/16 03:36:04;;;;;;;;;16.75;16.75;;;;;11.85;86.61;99730.28;5008673;28;9960;-65
2022/11/16 03:38:35;;;;;;;;;19.50;16.00;;;;;11.83;86.59;99722.41;5008151;28;10040;-65
2022/11/16 03:41:07;;;;;;;;;14.00;13.00;;;;;11.83;86.52;99725.13;5008764;28;10780;-65
2022/11/16 03:43:36;;;;;;;;;23.25;18.75;;;;;11.78;86.36;99741.09;5010043;28;10027;-65
2022/11/16 03:46:04;;;;;;;;;16.00;15.75;;;;;11.72;86.44;99731.25;5023265;28;10325;-65
2022/11/16 03:48:34;;;;;;;;;17.25;16.50;;;;;11.73;86.41;99738.28;4993541;28;9945;-65
2022/11/16 03:51:09;;;;;;;;;14.75;9.00;;;;;11.75;86.41;99714.63;4990176;28;10035;-65
2022/11/16 03:53:38;;;;;;;;;16.50;12.25;;;;;11.78;86.36;99718.72;5009077;28;9786;-65
2022/11/16 03:56:04;;;;;;;;;9.50;9.50;;;;;11.80;86.38;99732.81;5012200;28;9771;-65
2022/11/16 03:58:31;;;;;;;;;12.75;11.75;;;;;11.81;86.37;99731.75;5030105;28;9886;-65
2022/11/16 04:00:58;;;;;;;;;10.50;10.50;;;;;11.84;86.22;99734.03;5015151;28;9931;-65
2022/11/16 04:03:26;;;;;;;;;11.25;9.25;;;;;11.83;85.93;99735.91;5003600;28;10502;-63
2022/11/16 04:25:43;;;;;;;;;24.00;21.75;;;;;11.75;86.09;99736.19;5029849;28;10804;-65
2022/11/16 04:28:16;;;;;;;;;17.25;14.75;;;;;11.77;85.96;99746.75;5016665;28;10277;-66
2022/11/16 04:39:16;;;;;;;;;17.50;11.75;;;;;11.78;85.79;99746.50;5016287;28;10923;-65
2022/11/16 04:47:18;;;;;;;;;17.75;16.25;;;;;11.77;85.73;99771.81;5002514;28;9882;-66
2022/11/16 04:49:46;;;;;;;;;19.75;19.00;;;;;11.73;85.68;99772.50;5007908;28;9887;-65
2022/11/16 04:52:12;;;;;;;;;19.00;17.25;;;;;11.71;85.64;99764.66;4998391;28;10675;-65
2022/11/16 04:54:40;;;;;;;;;15.75;12.25;;;;;11.69;85.54;99772.13;5014055;28;9923;-64
2022/11/16 04:57:07;;;;;;;;;11.50;11.00;;;;;11.71;86.04;99771.91;5015130;28;10053;-64
2022/11/16 04:59:34;;;;;;;;;24.00;19.00;;;;;11.68;85.62;99759.72;5015648;28;9869;-64
2022/11/16 05:02:07;;;;;;;;;16.00;15.50;;;;;11.67;85.86;99760.78;4998652;28;10336;-65
2022/11/16 05:04:42;;;;;;;;;14.50;14.25;;;;;11.68;85.82;99754.31;5028003;28;9887;-65
2022/11/16 05:07:12;;;;;;;;;17.00;14.25;;;;;11.66;85.72;99761.81;5021654;28;10582;-65
2022/11/16 05:09:44;;;;;;;;;19.25;17.25;;;;;11.61;85.72;99762.50;5004900;28;10016;-65
2022/11/16 05:12:14;;;;;;;;;14.25;13.25;;;;;11.62;85.99;99750.66;4995808;28;10624;-65
2022/11/16 05:14:42;;;;;;;;;22.50;16.75;;;;;11.58;85.80;99760.25;4995509;28;10634;-65
2022/11/16 05:17:10;;;;;;;;;13.75;13.75;;;;;11.60;86.09;99751.94;4994964;28;9954;-65
2022/11/16 05:22:25;;;;;;;;;14.50;14.50;;;;;11.56;85.72;99748.88;5003079;28;9920;-64
2022/11/16 05:24:53;;;;;;;;;20.00;16.00;;;;;11.56;85.66;99759.66;5011507;28;9955;-65
2022/11/16 05:27:21;;;;;;;;;13.25;12.00;;;;;11.55;85.72;99759.91;4995274;28;10045;-65
2022/11/16 05:29:49;;;;;;;;;15.50;14.00;;;;;11.55;85.51;99757.22;5012131;28;9945;-65
2022/11/16 05:32:19;;;;;;;;;13.00;13.00;;;;;11.56;85.64;99765.06;5010340;28;10005;-64
2022/11/16 05:34:47;;;;;;;;;16.75;15.25;;;;;11.53;85.25;99759.28;5002994;28;10627;-64
2022/11/16 05:37:16;;;;;;;;;18.25;13.50;;;;;11.52;85.64;99769.25;5011282;28;10053;-65
2022/11/16 05:39:43;;;;;;;;;19.75;16.25;;;;;11.50;85.41;99775.91;5010553;28;9968;-65
2022/11/16 05:42:10;;;;;;;;;19.50;16.50;;;;;11.49;85.42;99775.09;4993951;28;10025;-66
2022/11/16 05:44:36;;;;;;;;;15.25;14.00;;;;;11.47;85.28;99781.78;5011750;28;10035;-65
2022/11/16 05:47:03;;;;;;;;;10.50;7.50;;;;;11.45;85.46;99778.47;5027129;28;10002;-63
2022/11/16 05:49:30;;;;;;;;;12.00;12.00;;;;;11.47;85.47;99784.47;5010463;28;10048;-66
2022/11/16 05:51:57;;;;;;;;;12.00;9.00;;;;;11.44;85.45;99784.91;4995024;28;9981;-65
2022/11/16 05:54:25;;;;;;;;;13.25;11.00;;;;;11.43;85.30;99785.97;4993531;28;9921;-66
2022/11/16 05:56:52;;;;;;;;;16.00;14.50;;;;;11.28;85.54;99789.03;5008133;28;10024;-66
2022/11/16 05:59:21;;;;;;;;;15.00;12.50;;;;;11.32;85.63;99780.28;4994100;28;10032;-66
2022/11/16 06:01:51;;;;;;;;;16.75;15.50;;;;;11.33;85.43;99781.09;5008802;28;9977;-66
2022/11/16 06:04:18;;;;;;;;;17.50;16.50;;;;;11.28;85.41;99787.16;5007662;28;10681;-66
2022/11/16 06:06:52;;;;;;;;;18.75;17.50;;;;;11.18;85.30;99786.88;4987928;28;10062;-66
2022/11/16 06:09:18;;;;;;;;;14.50;13.25;;;;;11.18;85.32;99789.56;5010475;28;10045;-65
2022/11/16 06:11:47;;;;;;;;;16.25;14.00;;;;;11.21;85.25;99789.09;5010315;28;9925;-65
2022/11/16 06:14:14;;;;;;;;;16.50;14.50;;;;;11.18;85.41;99783.31;5007756;28;10036;-65
2022/11/16 06:16:40;;;;;;;;;15.50;13.50;;;;;11.13;85.15;99784.81;5008459;28;10049;-66
2022/11/16 06:19:09;;;;;;;;;15.25;13.75;;;;;11.13;85.41;99792.91;4989607;28;9941;-65
2022/11/16 06:21:35;;;;;;;;;12.75;9.00;;;;;11.14;85.45;99789.19;5010015;28;10720;-65
2022/11/16 06:24:07;;;;;;;;;13.00;9.50;;;;;11.15;85.28;99790.00;4993276;28;10057;-66
2022/11/16 06:26:35;;;;;;;;;14.75;12.75;;;;;11.12;85.18;99783.19;5006029;28;9920;-65
2022/11/16 06:29:02;;;;;;;;;10.75;10.75;;;;;11.13;85.42;99789.38;4994916;28;10142;-66
2022/11/16 06:31:31;;;;;;;;;14.50;13.25;;;;;11.12;85.00;99791.25;5022843;28;10231;-65
2022/11/16 06:34:00;;;;;;;;;14.50;14.50;;;;;11.12;85.38;99796.66;5011175;28;10061;-65
2022/11/16 06:36:28;;;;;;;;;15.00;13.00;;;;;11.13;84.94;99798.28;4993754;28;10224;-65
2022/11/16 06:38:58;;;;;;;;;23.00;20.50;;;;;11.10;84.95;99795.22;5022515;28;10116;-65
2022/11/16 06:41:26;;;;;;;;;16.25;14.00;;;;;11.04;84.84;99793.44;5009384;28;10469;-63
2022/11/16 06:43:52;;;;;;;;;14.25;14.25;;;;;11.05;84.63;99797.75;4979819;28;10120;-65
2022/11/16 06:46:24;;;;;;;;;14.25;14.25;;;;;11.09;84.88;99801.66;4983077;28;10110;-65
2022/11/16 06:48:51;;;;;;;;;18.50;13.50;;;;;11.06;84.80;99792.16;5009839;28;10165;-63
2022/11/16 06:51:18;;;;;;;;;14.50;12.50;;;;;10.99;84.21;99804.06;4990150;28;10286;-65
2022/11/16 06:53:45;;;;;;;;;13.50;10.50;;;;;10.93;84.68;99802.22;5006335;28;10068;-65
2022/11/16 06:56:14;;;;;;;;;19.00;14.25;;;;;10.87;84.34;99796.69;5022133;28;9963;-65
2022/11/16 06:58:49;;;;;;;;;5.75;2.00;;;;;10.88;84.25;99806.41;5001377;28;10869;-65
2022/11/16 07:01:18;;;;;;;;;13.75;12.50;;;;;10.89;83.87;99808.06;4992877;28;10022;-64
2022/11/16 07:03:47;;;;;;;;;9.75;8.25;;;;;10.88;84.29;99814.50;5008539;28;10023;-63
2022/11/16 07:06:15;;;;;;;;;11.00;8.00;;;;;10.86;83.86;99813.09;4991078;28;10081;-63
2022/11/16 07:08:44;;;;;;;;;10.25;9.75;;;;;10.83;83.87;99808.13;5000428;28;10216;-62
2022/11/16 07:11:13;;;;;;;;;13.50;11.50;;;;;10.80;83.60;99812.09;5021510;28;10300;-63
2022/11/16 07:13:40;;;;;;;;;8.25;8.25;;;;;10.81;83.75;99808.34;5001615;28;10242;-62
2022/11/16 07:16:10;;;;;;;;;10.00;6.75;;;;;10.79;83.49;99810.44;5020471;28;9923;-63
2022/11/16 07:18:41;;;;;;;;;7.75;7.00;;;;;10.75;83.04;99811.09;4991876;28;10115;-62
2022/11/16 07:21:14;;;;;;;;;6.75;6.75;;;;;10.67;83.03;99820.28;4992478;28;10058;-62
2022/11/16 07:23:42;;;;;;;;;9.50;7.25;;;;;10.64;82.85;99828.78;5007935;28;10194;-64
2022/11/16 07:26:12;;;;;;;;;5.25;5.25;;;;;10.67;83.27;99828.34;4989096;28;10161;-63
2022/11/16 07:28:45;;;;;;;;;5.00;5.00;;;;;10.70;83.07;99836.00;4987120;28;10100;-64
2022/11/16 07:31:17;;;;;;;;;9.00;8.00;;;;;10.69;82.86;99837.00;5006562;28;10007;-64
2022/11/16 07:33:44;;;;;;;;;10.00;6.50;;;;;10.66;82.80;99848.25;5018324;28;10016;-64
2022/11/16 07:36:29;;;;;;;;;7.00;6.50;;;;;10.61;82.84;99850.75;4997444;28;10020;-63
2022/11/16 07:38:56;;;;;;;;;7.75;7.75;;;;;10.52;82.56;99850.19;4994426;28;10044;-64
2022/11/16 07:41:23;;;;;;;;;11.25;11.00;;;;;10.52;82.75;99854.75;5001683;28;10052;-65
2022/11/16 07:44:07;;;;;;;;;6.00;6.00;;;;;10.50;82.64;99856.84;4998793;28;10214;-65
2022/11/16 07:46:39;;;;;;;;;5.75;4.25;;;;;10.43;82.14;99870.34;4993718;28;10104;-64
2022/11/16 07:49:17;;;;;;;;;5.75;5.75;;;;;10.36;82.37;99875.75;4992041;28;10132;-65
2022/11/16 07:51:51;;;;;;;;;6.00;6.00;;;;;10.32;82.34;99876.41;4992493;28;10056;-65
2022/11/16 07:54:33;;;;;;;;;2.00;2.00;;;;;10.25;82.05;99875.63;4996853;28;10259;-65
2022/11/16 07:57:00;;;;;;;;;4.25;4.25;;;;;10.26;82.12;99879.97;4994817;28;10083;-65
2022/11/16 07:59:27;;;;;;;;;3.00;3.00;;;;;10.30;82.46;99882.00;5003314;28;10023;-65
2022/11/16 08:01:54;;;;;;;;;2.00;2.00;;;;;10.38;82.25;99881.75;5006407;28;10292;-65
2022/11/16 08:04:21;;;;;;;;;2.00;2.00;;;;;10.45;81.57;99889.78;4998217;28;10061;-65
2022/11/16 08:06:50;;;;;;;;;4.00;2.00;;;;;10.44;82.07;99890.81;4988484;28;9942;-64
2022/11/16 08:09:18;;;;;;;;;2.00;2.00;;;;;10.52;81.78;99890.56;5021708;28;9861;-63
2022/11/16 08:11:45;;;;;;;;;6.75;6.25;;;;;10.53;81.25;99894.06;5014005;28;9931;-63
2022/11/16 08:14:12;;;;;;;;;6.50;6.50;;;;;10.48;81.18;99892.03;4994817;28;10069;-64
2022/11/16 08:16:39;;;;;;;;;6.00;5.25;;;;;10.48;81.22;99896.59;5005981;28;10023;-65
2022/11/16 08:19:11;;;;;;;;;7.75;6.00;;;;;10.47;81.28;99905.72;5023834;28;10115;-65
2022/11/16 08:21:37;;;;;;;;;7.00;7.00;;;;;10.49;81.21;99895.53;5028364;28;10155;-64
2022/11/16 08:24:05;;;;;;;;;6.25;6.25;;;;;10.44;81.30;99900.75;4985011;28;9972;-65
2022/11/16 08:26:35;;;;;;;;;7.75;7.75;;;;;10.45;81.40;99897.88;4995660;28;10068;-64
2022/11/16 08:29:07;;;;;;;;;9.50;8.00;;;;;10.51;81.32;99905.06;4990504;28;10055;-64
2022/11/16 08:31:35;;;;;;;;;6.00;6.00;;;;;10.51;81.07;99898.84;4988690;28;10030;-64
2022/11/16 08:34:15;;;;;;;;;8.75;8.75;;;;;10.53;81.27;99899.44;5000614;28;10183;-64
2022/11/16 08:36:45;;;;;;;;;10.50;8.75;;;;;10.48;81.05;99896.59;5005260;28;10142;-64
2022/11/16 08:39:12;;;;;;;;;6.00;6.00;;;;;10.49;80.76;99906.31;5004051;28;10216;-64
2022/11/16 08:41:40;;;;;;;;;6.00;6.00;;;;;10.37;81.10;99901.63;4991232;28;10818;-64
2022/11/16 08:44:09;;;;;;;;;9.25;8.00;;;;;10.43;81.87;99907.19;5023559;28;10786;-64
2022/11/16 08:46:38;;;;;;;;;13.00;8.25;;;;;10.38;81.73;99913.22;5025992;28;10016;-64
2022/11/16 08:49:20;;;;;;;;;11.75;8.00;;;;;10.36;81.44;99908.03;4995223;28;10041;-64
2022/11/16 08:51:47;;;;;;;;;10.50;10.50;;;;;10.38;81.64;99907.84;4998786;28;10042;-64
2022/11/16 08:54:32;;;;;;;;;15.25;10.00;;;;;10.43;81.12;99902.63;5011449;28;10110;-64
2022/11/16 08:56:58;;;;;;;;;7.50;6.50;;;;;10.47;81.14;99911.91;4995709;28;10656;-64
2022/11/16 08:59:27;;;;;;;;;7.00;5.50;;;;;10.54;81.29;99912.69;5014077;28;9957;-64
2022/11/16 09:01:58;;;;;;;;;9.25;9.25;;;;;10.54;81.11;99910.00;5023669;28;9755;-64
2022/11/16 09:04:25;;;;;;;;;9.00;9.00;;;;;10.58;81.00;99911.22;5012464;28;10043;-65
2022/11/16 09:06:51;;;;;;;;;9.75;9.25;;;;;10.65;80.96;99911.16;5012546;28;10721;-64
2022/11/16 09:09:18;;;;;;;;;7.25;7.25;;;;;10.67;80.89;99898.34;5012829;28;10160;-64
2022/11/16 09:11:45;;;;;;;;;7.25;5.00;;;;;10.63;80.69;99905.19;5011650;28;10024;-64
2022/11/16 09:14:29;;;;;;;;;7.00;6.00;;;;;10.62;80.93;99907.06;5011082;28;10086;-64
2022/11/16 09:16:55;;;;;;;;;4.50;4.50;;;;;10.73;80.82;99905.53;5012417;28;10043;-64
2022/11/16 09:19:22;;;;;;;;;8.50;7.75;;;;;10.78;80.54;99919.16;5012138;28;9926;-64
2022/11/16 09:21:49;;;;;;;;;9.50;8.25;;;;;10.80;80.13;99909.00;5007998;28;10043;-64
2022/11/16 09:24:15;;;;;;;;;7.75;7.00;;;;;10.78;80.35;99894.94;5012502;28;10138;-66
2022/11/16 09:26:42;;;;;;;;;7.00;5.00;;;;;10.80;80.32;99895.53;5011112;28;9916;-65
2022/11/16 09:29:13;;;;;;;;;4.00;4.00;;;;;10.91;80.02;99893.19;5009270;28;9793;-65
2022/11/16 09:31:39;;;;;;;;;4.00;4.00;;;;;10.95;80.13;99895.22;5011180;28;9810;-65
2022/11/16 09:34:06;;;;;;;;;7.25;6.25;;;;;11.05;79.82;99900.91;5008950;28;9746;-65
2022/11/16 09:36:33;;;;;;;;;3.00;3.00;;;;;10.91;79.79;99902.09;5009511;28;9786;-65
2022/11/16 09:39:01;;;;;;;;;5.00;5.00;;;;;10.95;79.41;99895.22;5012184;28;9709;-65
2022/11/16 09:41:50;;;;;;;;;4.25;4.00;;;;;10.95;79.34;99905.16;5008735;28;10481;-65
2022/11/16 09:44:54;;;;;;;;;10.25;7.00;;;;;10.97;79.52;99911.16;5010617;28;9751;-65
2022/11/16 09:47:24;;;;;;;;;6.25;5.25;;;;;10.89;79.50;99913.06;5002436;28;9910;-66
2022/11/16 09:49:53;;;;;;;;;4.25;4.25;;;;;10.90;79.46;99922.00;5011390;28;9774;-65
2022/11/16 09:52:34;;;;;;;;;7.00;5.75;;;;;10.92;78.48;99914.50;5011769;28;9788;-63
2022/11/16 09:55:27;;;;;;;;;4.50;4.00;;;;;10.89;79.13;99915.75;5010737;28;9805;-63
2022/11/16 09:57:58;;;;;;;;;5.00;5.00;;;;;10.93;79.14;99923.41;5008048;28;9902;-63
2022/11/16 10:00:25;;;;;;;;;5.00;5.00;;;;;10.94;79.29;99925.03;5009999;28;9696;-65
2022/11/16 10:03:05;;;;;;;;;6.75;6.25;;;;;10.93;79.37;99924.22;5011779;28;10021;-65
2022/11/16 10:05:37;;;;;;;;;8.00;7.00;;;;;10.94;79.22;99936.66;5011951;28;9845;-63
2022/11/16 10:08:21;;;;;;;;;5.50;5.50;;;;;10.82;78.72;99928.47;5011424;28;9986;-65
2022/11/16 10:11:22;;;;;;;;;5.75;5.00;;;;;10.77;78.84;99940.91;5010567;28;9854;-65
2022/11/16 10:14:22;;;;;;;;;8.75;6.75;;;;;10.80;79.12;99935.09;5011277;28;9905;-64
2022/11/16 10:17:13;;;;;;;;;6.25;4.25;;;;;10.88;79.24;99934.81;5004432;28;10834;-64
2022/11/16 10:19:53;;;;;;;;;5.00;4.00;;;;;10.95;79.12;99937.47;5009849;28;10473;-65
2022/11/16 10:22:32;;;;;;;;;8.25;6.75;;;;;10.87;78.75;99934.00;5010208;28;9906;-64
2022/11/16 10:25:07;;;;;;;;;14.50;9.75;;;;;10.80;79.13;99937.78;4988657;28;9976;-64
2022/11/16 10:28:11;;;;;;;;;8.25;8.00;;;;;10.83;79.19;99937.34;5005678;28;9945;-65
2022/11/16 10:30:49;;;;;;;;;7.25;7.25;;;;;10.95;79.05;99932.91;5009769;28;9779;-65
2022/11/16 10:33:21;;;;;;;;;6.75;6.75;;;;;11.03;78.78;99929.94;5010707;28;10005;-64
2022/11/16 10:35:54;;;;;;;;;6.50;5.00;;;;;11.03;78.25;99927.25;5010883;28;10520;-64
2022/11/16 10:38:29;;;;;;;;;8.50;7.75;;;;;10.89;78.18;99920.31;5010623;28;9762;-64
2022/11/16 10:41:16;;;;;;;;;6.00;6.00;;;;;10.98;79.24;99926.25;5010726;28;9782;-64
2022/11/16 10:43:44;;;;;;;;;5.75;5.75;;;;;10.97;77.99;99919.22;5010669;28;9915;-64
2022/11/16 10:46:23;;;;;;;;;6.00;5.50;;;;;11.08;78.25;99923.91;5006651;28;9865;-64
2022/11/16 10:49:13;;;;;;;;;7.50;7.00;;;;;11.08;77.68;99923.91;5009039;28;9901;-64
2022/11/16 10:51:41;;;;;;;;;8.00;8.00;;;;;10.98;77.63;99915.47;5010101;28;10582;-64
2022/11/16 10:54:14;;;;;;;;;9.00;9.00;;;;;10.89;78.05;99918.44;5010098;28;9900;-64
2022/11/16 10:56:44;;;;;;;;;10.75;9.00;;;;;10.89;77.38;99921.13;5010034;28;10804;-65
2022/11/16 10:59:17;;;;;;;;;9.00;9.00;;;;;10.87;77.84;99915.16;5009610;28;9779;-63
2022/11/16 11:01:49;;;;;;;;;10.00;8.25;;;;;10.98;77.28;99918.16;5009657;28;10022;-64
2022/11/16 11:04:23;;;;;;;;;11.00;9.00;;;;;10.98;77.18;99912.78;5009390;28;9876;-64
2022/11/16 11:06:59;;;;;;;;;7.00;7.00;;;;;11.10;76.80;99913.72;4991225;28;9783;-64
2022/11/16 11:09:25;;;;;;;;;6.00;6.00;;;;;11.20;77.01;99911.38;5008740;28;9800;-65
2022/11/16 11:14:57;;;;;;;;;7.00;6.75;;;;;11.28;76.30;99907.56;5007565;28;10305;-64
2022/11/16 11:17:24;;;;;;;;;7.50;6.00;;;;;11.30;76.26;99902.75;5010382;28;9797;-64
2022/11/16 11:20:05;;;;;;;;;8.25;5.00;;;;;11.35;76.15;99901.06;5009563;28;9699;-65
2022/11/16 11:22:40;;;;;;;;;5.00;5.00;;;;;11.37;76.57;99903.53;5009479;28;9816;-65
2022/11/16 11:25:19;;;;;;;;;8.75;5.00;;;;;11.34;75.77;99907.50;5006473;28;9629;-65
2022/11/16 11:27:46;;;;;;;;;4.50;4.50;;;;;11.26;74.94;99909.66;5002096;28;9558;-64
2022/11/16 11:30:20;;;;;;;;;4.00;4.00;;;;;11.29;75.04;99904.63;5009417;28;9541;-64
2022/11/16 11:32:47;;;;;;;;;8.25;5.25;;;;;11.27;75.44;99905.94;5010264;28;10287;-64
2022/11/16 11:35:40;;;;;;;;;6.50;6.50;;;;;11.39;75.54;99896.88;5010026;28;9474;-64
2022/11/16 11:38:14;;;;;;;;;5.00;5.00;;;;;11.31;74.91;99905.25;5004083;28;9675;-65
2022/11/16 11:41:01;;;;;;;;;5.00;3.00;;;;;11.44;74.62;99892.69;5007426;28;9533;-65
2022/11/16 11:43:28;;;;;;;;;6.00;3.67;;;;;11.50;74.65;99895.31;5014569;28;9607;-63
2022/11/16 11:46:10;;;;;;;;;2.00;2.00;;;;;11.53;74.55;99888.66;5009878;28;9535;-64
2022/11/16 11:48:48;;;;;;;;;5.00;5.00;;;;;11.57;74.54;99887.97;5006367;28;9520;-64
2022/11/16 11:51:28;;;;;;;;;5.33;5.33;;;;;11.61;74.50;99885.66;5005693;28;9399;-64
2022/11/16 11:53:59;;;;;;;;;2.67;2.67;;;;;11.56;74.19;99890.91;4998662;28;9484;-64
2022/11/16 11:56:29;;;;;;;;;5.75;4.75;;;;;11.56;74.10;99893.59;5008729;28;9398;-63
2022/11/16 11:58:56;;;;;;;;;2.75;2.00;;;;;11.60;73.83;99894.81;5012271;28;9450;-66
2022/11/16 12:01:22;;;;;;;;;2.00;2.00;;;;;11.58;73.86;99883.41;5008435;28;9400;-66
2022/11/16 12:04:27;;;;;;;;;5.00;2.00;;;;;11.63;73.93;99883.59;5008239;28;9313;-64
2022/11/16 12:07:09;;;;;;;;;2.75;1.75;;;;;11.59;73.53;99893.16;5009389;28;9336;-62
2022/11/16 12:09:59;;;;;;;;;1.33;1.33;;;;;11.58;73.11;99891.50;5002320;28;9427;-64
2022/11/16 12:12:54;;;;;;;;;2.00;1.00;;;;;11.60;73.32;99894.81;5008532;28;9316;-64
2022/11/16 12:15:34;;;;;;;;;3.00;1.67;;;;;11.56;73.42;99899.00;5008420;28;9432;-66
2022/11/16 12:18:30;;;;;;;;;2.00;1.00;;;;;11.56;73.40;99899.00;5000227;28;9965;-63
2022/11/16 12:21:09;;;;;;;;;3.25;2.00;;;;;11.62;73.35;99908.88;5008126;28;9311;-64
2022/11/16 12:23:53;;;;;;;;;4.00;4.00;;;;;11.60;73.62;99898.31;5021521;28;9489;-64
2022/11/16 12:26:27;;;;;;;;;3.25;2.25;;;;;11.55;73.46;99897.34;5011778;28;9533;-65
2022/11/16 12:29:08;;;;;;;;;3.00;3.00;;;;;11.46;73.76;99895.97;5010942;28;9562;-66
2022/11/16 12:31:43;;;;;;;;;3.33;3.33;;;;;11.53;74.36;99886.78;5012684;28;9477;-66
2022/11/16 12:34:26;;;;;;;;;2.00;2.00;;;;;11.60;74.21;99890.25;5012750;28;9489;-64